createdAt,value
2018-12-19T00:02:10.450Z,8.00
2018-12-19T00:04:39.038Z,4.57
2018-12-19T00:07:07.617Z,5.37
2018-12-19T00:09:36.320Z,5.63
2018-12-19T00:12:05.016Z,4.83
2018-12-19T00:14:33.723Z,5.73
2018-12-19T00:17:02.657Z,5.17
2018-12-19T00:19:31.406Z,6.90
2018-12-19T00:22:00.097Z,5.43
2018-12-19T00:24:28.924Z,6.33
2018-12-19T00:26:59.291Z,7.67
2018-12-19T00:29:29.184Z,6.17
2018-12-19T00:31:58.801Z,6.87
2018-12-19T00:34:28.252Z,6.17
2018-12-19T00:36:57.550Z,4.93
2018-12-19T00:39:26.296Z,5.73
2018-12-19T00:44:31.901Z,8.17
2018-12-19T00:47:08.933Z,5.43
2018-12-19T00:49:38.006Z,5.40
2018-12-19T00:52:09.779Z,5.03
2018-12-19T00:55:02.429Z,6.07
2018-12-19T00:57:33.837Z,6.30
2018-12-19T01:00:06.085Z,4.80
2018-12-19T01:02:35.184Z,9.00
2018-12-19T01:05:04.219Z,5.37
2018-12-19T01:07:33.245Z,7.03
2018-12-19T01:10:02.744Z,5.40
2018-12-19T01:12:32.836Z,5.00
2018-12-19T01:15:01.528Z,6.23
2018-12-19T01:17:30.341Z,6.83
2018-12-19T01:19:59.013Z,5.97
2018-12-19T01:22:27.787Z,8.33
2018-12-19T01:25:00.366Z,5.30
2018-12-19T01:27:29.222Z,6.80
2018-12-19T01:29:59.088Z,5.83
2018-12-19T01:32:28.439Z,6.40
2018-12-19T01:34:58.705Z,6.30
2018-12-19T01:37:27.961Z,4.07
2018-12-19T01:39:56.640Z,5.17
2018-12-19T01:42:25.420Z,5.53
2018-12-19T01:44:54.212Z,5.27
2018-12-19T01:47:23.844Z,5.50
2018-12-19T01:49:53.548Z,4.63
2018-12-19T01:52:22.262Z,5.23
2018-12-19T01:54:51.026Z,5.60
2018-12-19T01:57:20.244Z,6.40
2018-12-19T01:59:49.245Z,5.87
2018-12-19T02:02:17.950Z,7.03
2018-12-19T02:04:46.606Z,6.77
2018-12-19T02:07:15.832Z,5.20
2018-12-19T02:09:48.234Z,6.03
2018-12-19T02:12:18.150Z,5.77
2018-12-19T02:14:47.645Z,8.57
2018-12-19T02:17:17.606Z,5.13
2018-12-19T02:19:49.713Z,5.67
2018-12-19T02:22:20.304Z,5.67
2018-12-19T02:24:53.806Z,4.40
2018-12-19T02:27:23.544Z,5.97
2018-12-19T02:29:52.334Z,5.90
2018-12-19T02:32:22.813Z,6.40
2018-12-19T02:34:53.554Z,4.70
2018-12-19T02:37:22.861Z,7.47
2018-12-19T02:39:52.212Z,6.93
2018-12-19T02:42:23.187Z,4.77
2018-12-19T02:44:52.954Z,5.93
2018-12-19T02:47:21.542Z,7.00
2018-12-19T02:49:50.268Z,5.27
2018-12-19T02:52:20.743Z,6.33
2018-12-19T02:54:49.388Z,5.03
2018-12-19T02:57:17.988Z,5.60
2018-12-19T02:59:46.727Z,5.70
2018-12-19T03:02:19.430Z,6.97
2018-12-19T03:04:49.264Z,6.90
2018-12-19T03:07:17.987Z,7.40
2018-12-19T03:09:48.678Z,4.73
2018-12-19T03:12:18.356Z,6.60
2018-12-19T03:14:46.979Z,8.20
2018-12-19T03:17:16.592Z,4.63
2018-12-19T03:19:45.209Z,5.03
2018-12-19T03:22:15.787Z,5.87
2018-12-19T03:24:44.470Z,5.87
2018-12-19T03:27:13.147Z,2.93
2018-12-19T03:29:42.238Z,4.53
2018-12-19T03:32:11.197Z,4.10
2018-12-19T03:34:39.703Z,6.30
2018-12-19T03:37:08.392Z,5.63
2018-12-19T03:39:37.139Z,5.70
2018-12-19T03:42:05.816Z,5.47
2018-12-19T03:44:34.348Z,5.93
2018-12-19T03:47:02.877Z,4.27
2018-12-19T03:49:31.709Z,4.93
2018-12-19T03:52:00.328Z,5.03
2018-12-19T03:54:29.157Z,4.03
2018-12-19T03:56:58.043Z,4.37
2018-12-19T03:59:27.516Z,5.43
2018-12-19T04:01:56.164Z,4.40
2018-12-19T04:04:26.235Z,8.00
2018-12-19T04:06:56.333Z,6.23
2018-12-19T04:09:24.990Z,4.07
2018-12-19T04:11:53.720Z,4.67
2018-12-19T04:14:22.301Z,6.43
2018-12-19T04:16:50.876Z,4.07
2018-12-19T04:19:19.526Z,3.83
2018-12-19T04:21:48.119Z,5.80
2018-12-19T04:24:16.710Z,3.03
2018-12-19T04:26:45.250Z,3.83
2018-12-19T04:29:13.908Z,5.33
2018-12-19T04:31:43.756Z,5.63
2018-12-19T04:34:14.023Z,3.77
2018-12-19T04:36:45.043Z,4.80
2018-12-19T04:39:13.645Z,4.07
2018-12-19T04:41:42.254Z,6.97
2018-12-19T04:44:11.449Z,4.63
2018-12-19T04:46:40.073Z,6.07
2018-12-19T04:49:12.358Z,4.90
2018-12-19T04:51:41.388Z,4.77
2018-12-19T04:54:13.069Z,8.83
2018-12-19T04:56:42.341Z,4.77
2018-12-19T04:59:12.884Z,4.93
2018-12-19T05:01:42.498Z,5.60
2018-12-19T05:04:11.453Z,5.27
2018-12-19T05:06:43.924Z,6.33
2018-12-19T05:09:13.305Z,7.77
2018-12-19T05:11:45.927Z,7.90
2018-12-19T05:14:17.704Z,6.13
2018-12-19T05:16:51.931Z,6.50
2018-12-19T05:19:20.801Z,7.33
2018-12-19T05:21:49.586Z,6.20
2018-12-19T05:24:18.354Z,3.20
2018-12-19T05:26:47.030Z,4.57
2018-12-19T05:29:15.815Z,6.83
2018-12-19T05:31:44.667Z,4.13
2018-12-19T05:34:13.363Z,5.60
2018-12-19T05:36:43.021Z,6.70
2018-12-19T05:39:11.936Z,4.40
2018-12-19T05:41:40.630Z,6.90
2018-12-19T05:44:09.250Z,5.17
2018-12-19T05:46:37.908Z,3.87
2018-12-19T05:49:06.765Z,6.27
2018-12-19T05:51:35.384Z,5.93
2018-12-19T05:54:04.072Z,5.73
2018-12-19T05:56:33.524Z,6.03
2018-12-19T05:59:02.245Z,7.67
2018-12-19T06:01:30.884Z,6.17
2018-12-19T06:04:00.767Z,7.13
2018-12-19T06:06:29.778Z,8.07
2018-12-19T06:08:59.344Z,9.50
2018-12-19T06:11:29.177Z,8.63
2018-12-19T06:13:57.776Z,10.48
2018-12-19T06:16:26.595Z,8.73
2018-12-19T06:18:55.152Z,7.43
2018-12-19T06:21:23.695Z,7.60
2018-12-19T06:23:52.203Z,7.70
2018-12-19T06:26:21.153Z,8.57
2018-12-19T06:28:49.736Z,7.30
2018-12-19T06:31:18.268Z,10.43
2018-12-19T06:33:46.992Z,8.03
2018-12-19T06:36:15.777Z,7.73
2018-12-19T06:38:44.328Z,8.53
2018-12-19T06:41:12.876Z,6.87
2018-12-19T06:43:42.456Z,6.80
2018-12-19T06:46:11.108Z,5.77
2018-12-19T06:48:39.642Z,7.70
2018-12-19T06:51:08.159Z,5.80
2018-12-19T06:53:36.778Z,11.27
2018-12-19T06:56:05.659Z,8.73
2018-12-19T06:58:34.167Z,11.17
2018-12-19T07:01:02.682Z,9.33
2018-12-19T07:03:31.250Z,6.73
2018-12-19T07:05:59.804Z,9.13
2018-12-19T07:08:28.321Z,11.07
2018-12-19T07:10:56.894Z,7.53
2018-12-19T07:13:25.504Z,7.57
2018-12-19T07:15:54.064Z,8.30
2018-12-19T07:18:22.702Z,8.33
2018-12-19T07:20:51.253Z,8.03
2018-12-19T07:23:19.807Z,6.73
2018-12-19T07:25:48.335Z,7.70
2018-12-19T07:28:17.602Z,6.43
2018-12-19T07:30:46.161Z,10.27
2018-12-19T07:33:14.699Z,10.40
2018-12-19T07:35:43.248Z,8.87
2018-12-19T07:38:11.813Z,9.20
2018-12-19T07:40:45.579Z,8.63
2018-12-19T07:43:11.428Z,7.70
2018-12-19T07:45:39.978Z,10.90
2018-12-19T07:48:08.541Z,9.47
2018-12-19T07:50:37.230Z,7.37
2018-12-19T07:53:05.908Z,6.87
2018-12-19T07:55:37.150Z,9.70
2018-12-19T07:58:06.329Z,11.77
2018-12-19T08:00:35.000Z,10.33
2018-12-19T08:03:03.572Z,9.60
2018-12-19T08:05:32.217Z,7.23
2018-12-19T08:08:00.796Z,17.13
2018-12-19T08:10:29.351Z,7.53
2018-12-19T08:12:57.973Z,14.23
2018-12-19T08:15:26.546Z,10.33
2018-12-19T08:17:55.127Z,8.43
2018-12-19T08:20:23.718Z,11.23
2018-12-19T08:22:52.378Z,8.03
2018-12-19T08:25:20.984Z,9.33
2018-12-19T08:27:49.534Z,12.77
2018-12-19T08:30:18.346Z,9.00
2018-12-19T08:32:46.867Z,11.70
2018-12-19T08:35:15.391Z,11.63
2018-12-19T08:37:44.031Z,13.43
2018-12-19T08:40:12.589Z,14.73
2018-12-19T08:42:41.133Z,10.97
2018-12-19T08:45:09.674Z,17.50
2018-12-19T08:47:38.258Z,14.30
2018-12-19T08:50:09.003Z,16.33
2018-12-19T08:52:37.600Z,13.57
2018-12-19T08:55:07.865Z,15.47
2018-12-19T08:57:36.407Z,15.57
2018-12-19T09:00:06.318Z,14.53
2018-12-19T09:02:34.855Z,16.77
2018-12-19T09:05:03.487Z,17.10
2018-12-19T09:07:32.021Z,14.10
2018-12-19T09:10:00.528Z,15.17
2018-12-19T09:12:29.183Z,20.67
2018-12-19T09:14:58.010Z,22.23
2018-12-19T09:17:27.140Z,16.47
2018-12-19T09:19:55.769Z,24.37
2018-12-19T09:22:24.410Z,19.47
2018-12-19T09:24:52.930Z,23.93
2018-12-19T09:27:21.445Z,19.37
2018-12-19T09:29:50.520Z,18.33
2018-12-19T09:32:19.001Z,18.10
2018-12-19T09:34:47.490Z,18.07
2018-12-19T09:37:15.979Z,21.00
2018-12-19T09:39:44.434Z,16.37
2018-12-19T09:42:12.976Z,19.87
2018-12-19T09:44:41.452Z,17.00
2018-12-19T09:47:09.901Z,16.00
2018-12-19T09:49:38.358Z,18.83
2018-12-19T09:52:06.933Z,16.70
2018-12-19T09:54:35.424Z,17.97
2018-12-19T09:57:03.909Z,17.37
2018-12-19T09:59:32.396Z,18.33
2018-12-19T10:02:01.265Z,19.67
2018-12-19T10:04:29.716Z,16.70
2018-12-19T10:06:58.181Z,23.87
2018-12-19T10:09:26.633Z,18.30
2018-12-19T10:11:55.083Z,21.13
2018-12-19T10:14:23.558Z,19.93
2018-12-19T10:16:52.025Z,16.70
2018-12-19T10:19:20.502Z,16.83
2018-12-19T10:21:49.223Z,14.87
2018-12-19T10:24:17.679Z,19.13
2018-12-19T10:26:46.126Z,23.17
2018-12-19T10:29:14.586Z,17.00
2018-12-19T10:31:43.048Z,20.63
2018-12-19T10:34:11.511Z,20.90
2018-12-19T10:36:40.011Z,19.43
2018-12-19T10:39:16.492Z,18.03
2018-12-19T10:41:44.963Z,17.40
2018-12-19T10:44:13.856Z,17.53
2018-12-19T10:46:42.479Z,20.97
2018-12-19T10:49:10.938Z,18.77
2018-12-19T10:51:39.407Z,16.97
2018-12-19T10:54:07.867Z,17.43
2018-12-19T10:56:36.356Z,17.30
2018-12-19T10:59:04.818Z,15.40
2018-12-19T11:01:33.305Z,15.53
2018-12-19T11:04:01.785Z,14.60
2018-12-19T11:06:30.230Z,15.00
2018-12-19T11:08:58.696Z,17.10
2018-12-19T11:11:32.306Z,11.57
2018-12-19T11:13:57.743Z,13.27
2018-12-19T11:16:26.195Z,12.33
2018-12-19T11:18:54.650Z,14.50
2018-12-19T11:21:23.107Z,16.90
2018-12-19T11:23:51.787Z,10.47
2018-12-19T11:26:20.231Z,12.07
2018-12-19T11:28:48.830Z,14.20
2018-12-19T11:31:17.463Z,10.10
2018-12-19T11:33:46.164Z,8.70
2018-12-19T11:36:14.631Z,8.03
2018-12-19T11:38:43.080Z,10.03
2018-12-19T11:41:11.559Z,11.17
2018-12-19T11:43:40.050Z,7.73
2018-12-19T11:46:08.706Z,11.20
2018-12-19T11:48:37.163Z,11.27
2018-12-19T11:51:05.643Z,8.27
2018-12-19T11:53:34.106Z,7.63
2018-12-19T11:56:02.567Z,6.60
2018-12-19T11:58:31.026Z,7.33
2018-12-19T12:00:59.518Z,5.63
2018-12-19T12:03:29.516Z,9.00
2018-12-19T12:05:58.191Z,8.47
2018-12-19T12:08:26.706Z,5.80
2018-12-19T12:10:55.188Z,6.67
2018-12-19T12:13:23.674Z,8.20
2018-12-19T12:15:52.171Z,7.80
2018-12-19T12:18:20.644Z,8.07
2018-12-19T12:20:49.123Z,10.70
2018-12-19T12:23:17.586Z,9.70
2018-12-19T12:25:46.067Z,6.83
2018-12-19T12:28:14.547Z,6.60
2018-12-19T12:30:43.003Z,11.83
2018-12-19T12:33:11.646Z,6.73
2018-12-19T12:35:40.340Z,7.27
2018-12-19T12:38:10.460Z,8.23
2018-12-19T12:40:38.922Z,11.77
2018-12-19T12:43:07.732Z,7.87
2018-12-19T12:45:36.247Z,8.73
2018-12-19T12:48:04.720Z,6.83
2018-12-19T12:50:33.685Z,7.47
2018-12-19T12:53:02.274Z,6.27
2018-12-19T12:55:31.868Z,5.77
2018-12-19T12:58:00.378Z,7.70
2018-12-19T13:00:28.904Z,7.83
2018-12-19T13:02:57.379Z,6.93
2018-12-19T13:05:25.917Z,7.20
2018-12-19T13:07:54.383Z,7.00
2018-12-19T13:10:22.889Z,10.43
2018-12-19T13:12:51.378Z,7.87
2018-12-19T13:15:50.834Z,9.90
2018-12-19T13:18:19.321Z,7.70
2018-12-19T13:20:47.899Z,8.20
2018-12-19T13:23:16.371Z,8.50
2018-12-19T13:25:44.836Z,8.53
2018-12-19T13:28:13.342Z,9.30
2018-12-19T13:30:43.214Z,5.93
2018-12-19T13:33:11.701Z,7.57
2018-12-19T13:35:40.188Z,11.77
2018-12-19T13:38:08.691Z,7.70
2018-12-19T13:40:37.213Z,6.80
2018-12-19T13:43:12.156Z,9.00
2018-12-19T13:45:40.645Z,8.60
2018-12-19T13:48:09.157Z,6.00
2018-12-19T13:50:37.750Z,8.30
2018-12-19T13:53:06.988Z,7.20
2018-12-19T13:55:36.191Z,7.57
2018-12-19T13:58:07.163Z,7.03
2018-12-19T14:00:35.279Z,7.20
2018-12-19T14:03:03.909Z,6.23
2018-12-19T14:05:32.896Z,5.93
2018-12-19T14:08:01.402Z,7.67
2018-12-19T14:10:30.167Z,7.13
2018-12-19T14:12:58.817Z,11.33
2018-12-19T14:15:27.306Z,6.90
2018-12-19T14:17:55.893Z,7.23
2018-12-19T14:20:24.401Z,8.37
2018-12-19T14:22:53.088Z,6.27
2018-12-19T14:25:22.910Z,6.40
2018-12-19T14:27:51.693Z,8.53
2018-12-19T14:30:20.765Z,10.27
2018-12-19T14:32:51.411Z,9.20
2018-12-19T14:35:19.977Z,7.57
2018-12-19T14:37:48.553Z,8.17
2018-12-19T14:40:17.231Z,6.03
2018-12-19T14:42:47.116Z,8.20
2018-12-19T14:45:16.900Z,4.20
2018-12-19T14:47:46.057Z,6.90
2018-12-19T14:50:14.653Z,7.70
2018-12-19T14:52:43.720Z,7.77
2018-12-19T14:55:12.337Z,6.10
2018-12-19T14:57:41.724Z,5.90
2018-12-19T15:00:11.538Z,10.03
2018-12-19T15:02:55.104Z,5.90
2018-12-19T15:05:51.206Z,11.73
2018-12-19T15:11:57.101Z,4.67
2018-12-19T15:14:25.759Z,7.67
2018-12-19T15:16:55.031Z,8.07
2018-12-19T15:19:23.827Z,6.13
2018-12-19T15:21:57.608Z,5.53
2018-12-19T15:24:26.682Z,10.50
2018-12-19T15:27:58.675Z,5.83
2018-12-19T15:30:48.750Z,7.87
2018-12-19T15:33:21.369Z,10.43
2018-12-19T15:35:52.070Z,9.10
2018-12-19T15:38:22.444Z,9.87
2018-12-19T15:40:51.679Z,7.20
2018-12-19T15:43:20.614Z,7.37
2018-12-19T15:45:49.249Z,8.93
2018-12-19T15:48:18.060Z,8.73
2018-12-19T15:50:48.693Z,8.50
2018-12-19T15:53:17.986Z,10.87
2018-12-19T15:55:48.607Z,10.80
2018-12-19T15:58:19.284Z,10.83
2018-12-19T16:00:52.141Z,5.20
2018-12-19T16:03:26.402Z,5.67
2018-12-19T16:06:00.186Z,8.20
2018-12-19T16:08:32.705Z,6.50
2018-12-19T16:11:01.802Z,3.90
2018-12-19T16:13:31.011Z,5.07
2018-12-19T16:16:00.556Z,13.30
2018-12-19T16:18:29.432Z,23.43
2018-12-19T16:20:58.588Z,24.17
2018-12-19T16:23:27.227Z,14.83
2018-12-19T16:25:55.742Z,8.77
2018-12-19T16:28:24.834Z,8.10
2018-12-19T16:30:53.471Z,7.07
2018-12-19T16:33:21.986Z,5.83
2018-12-19T16:35:50.501Z,5.87
2018-12-19T16:38:18.987Z,7.90
2018-12-19T16:40:47.473Z,4.90
2018-12-19T16:43:15.971Z,7.20
2018-12-19T16:45:44.478Z,8.10
2018-12-19T16:48:12.972Z,7.43
2018-12-19T16:50:42.279Z,7.37
2018-12-19T16:53:10.796Z,7.73
2018-12-19T16:55:39.601Z,7.33
2018-12-19T16:58:08.310Z,6.67
2018-12-19T17:00:38.365Z,6.90
2018-12-19T17:03:07.229Z,9.37
2018-12-19T17:05:35.950Z,7.20
2018-12-19T17:08:04.750Z,11.00
2018-12-19T17:10:33.922Z,5.57
2018-12-19T17:13:04.261Z,11.10
2018-12-19T17:15:37.077Z,9.50
2018-12-19T17:18:05.979Z,7.50
2018-12-19T17:20:34.515Z,6.23
2018-12-19T17:23:03.010Z,6.10
2018-12-19T17:25:32.064Z,18.67
2018-12-19T17:28:00.575Z,12.67
2018-12-19T17:30:29.061Z,9.97
2018-12-19T17:32:57.632Z,7.33
2018-12-19T17:35:26.216Z,9.50
2018-12-19T17:37:54.740Z,9.47
2018-12-19T17:40:23.454Z,8.00
2018-12-19T17:43:00.197Z,7.23
2018-12-19T17:45:28.651Z,6.33
2018-12-19T17:47:58.605Z,6.47
2018-12-19T17:50:27.433Z,5.30
2018-12-19T17:52:56.053Z,8.57
2018-12-19T17:55:24.601Z,5.87
2018-12-19T17:57:53.144Z,11.57
2018-12-19T18:00:22.186Z,30.93
2018-12-19T18:02:50.774Z,30.97
2018-12-19T18:05:19.232Z,32.97
2018-12-19T18:07:47.750Z,20.20
2018-12-19T18:10:17.245Z,16.17
2018-12-19T18:12:46.175Z,13.07
2018-12-19T18:15:14.898Z,10.47
2018-12-19T18:17:44.464Z,6.43
2018-12-19T18:20:13.283Z,7.00
2018-12-19T18:22:43.212Z,4.77
2018-12-19T18:25:12.029Z,6.67
2018-12-19T18:27:40.635Z,6.83
2018-12-19T18:30:10.074Z,6.23
2018-12-19T18:32:38.768Z,4.93
2018-12-19T18:35:08.136Z,18.60
2018-12-19T18:37:36.997Z,7.90
2018-12-19T18:40:07.902Z,3.33
2018-12-19T18:42:37.604Z,6.37
2018-12-19T18:45:11.892Z,6.20
2018-12-19T18:47:38.690Z,8.23
2018-12-19T18:50:10.219Z,7.73
2018-12-19T18:52:39.490Z,10.03
2018-12-19T18:55:08.705Z,5.27
2018-12-19T18:57:37.987Z,7.13
2018-12-19T19:00:08.513Z,6.97
2018-12-19T19:02:37.594Z,4.60
2018-12-19T19:05:06.994Z,5.60
2018-12-19T19:07:36.675Z,5.60
2018-12-19T19:10:06.159Z,6.20
2018-12-19T19:12:35.196Z,4.73
2018-12-19T19:15:04.380Z,4.50
2018-12-19T19:17:32.868Z,5.87
2018-12-19T19:20:01.612Z,4.87
2018-12-19T19:22:30.558Z,4.83
2018-12-19T19:24:59.061Z,10.17
2018-12-19T19:27:27.609Z,5.30
2018-12-19T19:29:56.196Z,10.83
2018-12-19T19:32:24.975Z,14.20
2018-12-19T19:34:53.726Z,10.37
2018-12-19T19:37:22.343Z,16.97
2018-12-19T19:39:50.983Z,16.20
2018-12-19T19:42:20.220Z,19.73
2018-12-19T19:44:49.092Z,19.57
2018-12-19T19:47:19.574Z,13.47
2018-12-19T19:49:50.107Z,8.83
2018-12-19T19:52:18.805Z,11.80
2018-12-19T19:54:47.503Z,8.57
2018-12-19T19:57:16.788Z,5.73
2018-12-19T19:59:45.755Z,7.50
2018-12-19T20:02:14.521Z,7.80
2018-12-19T20:04:43.501Z,8.83
2018-12-19T20:07:12.395Z,10.03
2018-12-19T20:09:41.045Z,6.97
2018-12-19T20:12:10.307Z,5.63
2018-12-19T20:14:38.874Z,7.97
2018-12-19T20:17:07.684Z,12.53
2018-12-19T20:19:36.653Z,13.50
2018-12-19T20:22:05.332Z,10.30
2018-12-19T20:24:33.882Z,14.63
2018-12-19T20:27:02.549Z,13.07
2018-12-19T20:29:32.117Z,13.13
2018-12-19T20:32:00.832Z,18.23
2018-12-19T20:34:29.576Z,19.03
2018-12-19T20:36:58.145Z,24.50
2018-12-19T20:39:26.766Z,21.63
2018-12-19T20:41:55.258Z,15.93
2018-12-19T20:44:23.915Z,19.10
2018-12-19T20:46:52.507Z,16.47
2018-12-19T20:49:21.084Z,15.60
2018-12-19T20:51:50.144Z,23.00
2018-12-19T20:54:18.631Z,18.83
2018-12-19T20:56:47.131Z,19.25
2018-12-19T20:59:15.726Z,11.87
2018-12-19T21:01:44.265Z,11.17
2018-12-19T21:04:12.784Z,8.43
2018-12-19T21:06:41.386Z,8.53
2018-12-19T21:09:09.978Z,8.10
2018-12-19T21:11:38.561Z,8.77
2018-12-19T21:14:07.058Z,8.97
2018-12-19T21:16:40.878Z,9.70
2018-12-19T21:19:09.380Z,8.53
2018-12-19T21:21:37.831Z,8.43
2018-12-19T21:24:06.997Z,5.57
2018-12-19T21:26:35.479Z,6.33
2018-12-19T21:29:04.853Z,9.20
2018-12-19T21:31:33.494Z,8.37
2018-12-19T21:34:02.063Z,5.40
2018-12-19T21:36:30.511Z,9.20
2018-12-19T21:38:59.135Z,8.07
2018-12-19T21:41:27.644Z,9.40
2018-12-19T21:43:57.272Z,8.83
2018-12-19T21:46:25.916Z,8.77
2018-12-19T21:48:56.295Z,8.07
2018-12-19T21:51:24.913Z,5.93
2018-12-19T21:53:53.457Z,7.00
2018-12-19T21:56:21.942Z,6.60
2018-12-19T21:58:50.659Z,7.20
2018-12-19T22:01:19.254Z,7.80
2018-12-19T22:03:47.829Z,6.80
2018-12-19T22:06:17.150Z,7.40
2018-12-19T22:08:45.900Z,11.63
2018-12-19T22:11:14.687Z,11.37
2018-12-19T22:13:43.559Z,8.43
2018-12-19T22:16:16.331Z,10.20
2018-12-19T22:18:46.935Z,8.40
2018-12-19T22:21:16.417Z,6.93
2018-12-19T22:23:45.911Z,7.07
2018-12-19T22:26:14.554Z,6.47
2018-12-19T22:28:44.069Z,6.37
2018-12-19T22:31:12.787Z,10.63
2018-12-19T22:33:41.460Z,9.07
2018-12-19T22:36:10.014Z,8.27
2018-12-19T22:38:38.547Z,6.10
2018-12-19T22:41:07.042Z,3.43
2018-12-19T22:43:35.562Z,6.53
2018-12-19T22:46:04.102Z,5.53
2018-12-19T22:48:32.821Z,8.83
2018-12-19T22:51:01.414Z,4.80
2018-12-19T22:53:30.603Z,6.23
2018-12-19T22:55:59.123Z,9.63
2018-12-19T22:58:27.910Z,4.87
2018-12-19T23:01:01.780Z,6.73
2018-12-19T23:03:35.723Z,6.90
2018-12-19T23:06:04.496Z,5.50
2018-12-19T23:08:33.103Z,7.70
2018-12-19T23:11:01.715Z,5.53
2018-12-19T23:13:31.208Z,7.13
2018-12-19T23:15:59.910Z,7.70
2018-12-19T23:18:28.559Z,9.67
2018-12-19T23:20:57.163Z,5.87
2018-12-19T23:23:25.962Z,5.10
2018-12-19T23:25:54.479Z,5.27
2018-12-19T23:28:22.970Z,7.23
2018-12-19T23:30:51.510Z,5.47
2018-12-19T23:33:20.245Z,8.70
2018-12-19T23:35:48.813Z,4.73
2018-12-19T23:38:17.361Z,9.00
2018-12-19T23:40:45.941Z,7.90
2018-12-19T23:43:14.493Z,9.33
2018-12-19T23:45:43.051Z,7.20
2018-12-19T23:48:11.641Z,6.03
2018-12-19T23:50:40.132Z,6.40
2018-12-19T23:53:08.748Z,6.27
2018-12-19T23:55:37.480Z,7.53
2018-12-19T23:58:06.232Z,8.30
